Time;durP1;ratioP1;P1;durP2;ratioP2;P2;SDS_P1;SDS_P2;PMS_P1;PMS_P2;Temp;Humidity;BMP_temperature;BMP_pressure;BME280_temperature;BME280_humidity;BME280_pressure;Samples;Min_cycle;Max_cycle;Signal;HPM_P1;HPM_P2
2023/05/23 00:02:07;;;;;;;9.00;8.20;;;17.80;99.90;;;;;;6277428;28;20561;-67
2023/05/23 00:05:14;;;;;;;9.63;8.70;;;17.80;99.90;;;;;;6277706;28;20232;-67
2023/05/23 00:08:18;;;;;;;9.23;8.40;;;17.80;99.90;;;;;;6277893;28;20527;-67
2023/05/23 00:11:25;;;;;;;8.53;7.80;;;17.90;99.90;;;;;;6277723;28;20485;-68
2023/05/23 00:14:32;;;;;;;9.27;8.43;;;17.80;99.90;;;;;;6268297;28;20242;-67
2023/05/23 00:17:36;;;;;;;9.47;8.23;;;17.80;99.90;;;;;;6277473;28;20315;-67
2023/05/23 00:20:42;;;;;;;9.97;9.07;;;17.80;99.90;;;;;;6277189;28;20238;-67
2023/05/23 00:23:46;;;;;;;9.80;8.83;;;17.80;99.90;;;;;;6277346;28;20235;-67
2023/05/23 00:26:49;;;;;;;9.27;8.30;;;17.80;99.90;;;;;;6277121;28;20480;-67
2023/05/23 00:29:52;;;;;;;9.40;8.53;;;17.80;99.90;;;;;;6276400;28;20564;-68
2023/05/23 00:32:56;;;;;;;9.50;8.60;;;17.80;99.90;;;;;;6276799;28;20686;-68
2023/05/23 00:36:01;;;;;;;8.80;8.10;;;17.70;99.90;;;;;;6276523;28;20254;-68
2023/05/23 00:39:04;;;;;;;8.97;8.20;;;17.80;99.90;;;;;;6277100;28;20231;-68
2023/05/23 00:42:08;;;;;;;9.60;8.70;;;17.70;99.90;;;;;;6276633;28;20228;-68
2023/05/23 00:45:12;;;;;;;9.20;8.40;;;17.60;99.90;;;;;;6276717;28;20541;-68
2023/05/23 00:48:15;;;;;;;8.10;7.40;;;17.60;99.90;;;;;;6276517;28;20488;-68
2023/05/23 00:51:21;;;;;;;10.53;8.30;;;17.60;99.90;;;;;;6276525;28;20247;-68
2023/05/23 00:54:26;;;;;;;9.00;8.20;;;17.60;99.90;;;;;;6276686;28;20227;-68
2023/05/23 00:57:29;;;;;;;10.17;9.10;;;17.60;99.90;;;;;;6276753;28;20227;-68
2023/05/23 01:00:34;;;;;;;8.17;7.40;;;17.60;99.90;;;;;;6276033;28;20236;-68
2023/05/23 01:03:37;;;;;;;12.03;11.03;;;17.60;99.90;;;;;;6276464;28;20478;-68
2023/05/23 01:06:45;;;;;;;10.70;9.87;;;17.60;99.90;;;;;;6275458;28;20466;-68
2023/05/23 01:09:49;;;;;;;10.53;9.60;;;17.60;99.90;;;;;;6276362;28;20565;-68
2023/05/23 01:13:03;;;;;;;9.47;8.77;;;17.50;99.90;;;;;;6281342;28;20223;-68
2023/05/23 01:16:13;;;;;;;8.73;8.00;;;17.50;99.90;;;;;;6276132;28;20266;-69
2023/05/23 01:19:40;;;;;;;9.67;8.87;;;17.50;99.90;;;;;;6271532;28;20595;-68
2023/05/23 01:23:05;;;;;;;8.47;7.77;;;17.40;99.90;;;;;;6275691;28;20224;-68
2023/05/23 01:26:25;;;;;;;10.07;9.13;;;17.40;99.90;;;;;;6275286;28;20466;-68
2023/05/23 01:29:32;;;;;;;9.13;8.00;;;17.30;99.90;;;;;;6279634;28;21023;-68
2023/05/23 01:32:37;;;;;;;8.80;8.00;;;17.30;99.90;;;;;;6284324;28;21136;-68
2023/05/23 01:35:42;;;;;;;8.50;7.67;;;17.30;99.90;;;;;;6276738;28;20549;-68
2023/05/23 01:38:45;;;;;;;9.53;8.70;;;17.20;99.90;;;;;;6275770;28;20470;-67
2023/05/23 01:41:49;;;;;;;9.10;8.30;;;17.10;99.90;;;;;;6275373;28;20473;-68
2023/05/23 01:44:58;;;;;;;9.77;8.80;;;17.10;99.90;;;;;;6275336;28;20942;-68
2023/05/23 01:48:02;;;;;;;9.40;8.60;;;17.10;99.90;;;;;;6275048;28;20474;-68
2023/05/23 01:51:05;;;;;;;8.20;7.50;;;17.10;99.90;;;;;;6274892;28;20815;-68
2023/05/23 01:54:09;;;;;;;8.93;8.03;;;17.00;99.90;;;;;;6274939;28;20815;-68
2023/05/23 01:57:13;;;;;;;9.20;8.23;;;17.00;99.90;;;;;;6274829;28;20466;-68
2023/05/23 02:00:18;;;;;;;8.43;7.73;;;17.00;99.90;;;;;;6274551;28;20486;-68
2023/05/23 02:03:22;;;;;;;9.20;8.30;;;17.00;99.90;;;;;;6275135;28;20474;-68
2023/05/23 02:06:25;;;;;;;8.77;7.87;;;16.90;99.90;;;;;;6274919;28;20555;-68
2023/05/23 02:09:28;;;;;;;8.40;7.67;;;16.90;99.90;;;;;;6274613;28;20511;-68
2023/05/23 02:12:31;;;;;;;9.97;8.93;;;16.80;99.90;;;;;;6274827;28;20481;-68
2023/05/23 02:15:36;;;;;;;8.60;7.80;;;16.80;99.90;;;;;;6274550;28;20470;-68
2023/05/23 02:18:39;;;;;;;9.60;7.93;;;16.80;99.90;;;;;;6274690;28;20760;-68
2023/05/23 02:21:42;;;;;;;9.20;8.40;;;16.80;99.90;;;;;;6274632;28;20820;-68
2023/05/23 02:24:45;;;;;;;10.13;9.30;;;16.70;99.90;;;;;;6274904;28;20466;-68
2023/05/23 02:27:49;;;;;;;9.43;8.53;;;16.70;99.90;;;;;;6274475;28;20571;-68
2023/05/23 02:30:53;;;;;;;10.03;9.13;;;16.70;99.90;;;;;;6274293;28;20519;-69
2023/05/23 02:33:56;;;;;;;8.43;7.73;;;16.70;99.90;;;;;;6274262;28;20549;-68
2023/05/23 02:37:00;;;;;;;9.33;8.43;;;16.60;99.90;;;;;;6274263;28;20818;-68
2023/05/23 02:40:03;;;;;;;8.87;8.07;;;16.60;99.90;;;;;;6274241;28;20493;-68
2023/05/23 02:43:08;;;;;;;9.83;8.93;;;16.60;99.90;;;;;;6274101;28;20938;-68
2023/05/23 02:46:13;;;;;;;9.87;8.97;;;16.50;99.90;;;;;;6274405;28;20466;-68
2023/05/23 02:49:16;;;;;;;11.90;8.93;;;16.50;99.90;;;;;;6274232;28;20474;-68
2023/05/23 02:52:19;;;;;;;9.17;8.37;;;16.40;99.90;;;;;;6274144;28;20466;-68
2023/05/23 02:55:23;;;;;;;11.03;8.80;;;16.40;99.90;;;;;;6274474;28;20476;-68
2023/05/23 02:58:26;;;;;;;9.40;8.40;;;16.40;99.90;;;;;;6275952;28;20469;-68
2023/05/23 03:01:30;;;;;;;9.73;8.90;;;16.40;99.90;;;;;;6273742;28;20470;-68
2023/05/23 03:04:34;;;;;;;9.07;8.23;;;16.40;99.90;;;;;;6273282;28;20478;-68
2023/05/23 03:07:37;;;;;;;8.90;8.10;;;16.40;99.90;;;;;;6274286;28;20527;-68
2023/05/23 03:10:40;;;;;;;9.10;8.30;;;16.40;99.90;;;;;;6273521;28;20469;-68
2023/05/23 03:13:43;;;;;;;8.60;7.80;;;16.40;99.90;;;;;;6273918;28;20883;-68
2023/05/23 03:16:48;;;;;;;9.13;8.30;;;16.40;99.90;;;;;;6273786;28;20449;-68
2023/05/23 03:19:51;;;;;;;10.07;9.17;;;16.40;99.90;;;;;;6273664;28;20540;-67
2023/05/23 03:22:55;;;;;;;9.47;8.73;;;16.40;99.90;;;;;;6273538;28;20466;-68
2023/05/23 03:25:58;;;;;;;10.50;9.40;;;16.30;99.90;;;;;;6264497;28;20508;-68
2023/05/23 03:29:01;;;;;;;9.50;8.60;;;16.30;99.90;;;;;;6273722;28;20474;-67
2023/05/23 03:32:07;;;;;;;11.10;9.13;;;16.20;99.90;;;;;;6278591;28;20473;-68
2023/05/23 03:35:10;;;;;;;9.30;8.40;;;16.20;99.90;;;;;;6278092;28;20618;-68
2023/05/23 03:38:14;;;;;;;10.87;9.57;;;16.20;99.90;;;;;;6277901;28;20469;-68
2023/05/23 03:41:17;;;;;;;10.50;9.50;;;16.20;99.90;;;;;;6278025;28;20474;-68
2023/05/23 03:44:21;;;;;;;9.50;8.70;;;16.30;99.90;;;;;;6277431;28;20466;-67
2023/05/23 03:47:25;;;;;;;11.10;10.10;;;16.30;99.90;;;;;;6277626;28;20481;-67
2023/05/23 03:50:29;;;;;;;9.23;8.30;;;16.30;99.90;;;;;;6277837;28;20596;-67
2023/05/23 03:53:32;;;;;;;10.40;9.40;;;16.30;99.90;;;;;;6277766;28;20961;-67
2023/05/23 03:56:38;;;;;;;8.77;8.07;;;16.30;99.90;;;;;;6277762;28;20559;-67
2023/05/23 03:59:41;;;;;;;8.83;8.00;;;16.40;99.90;;;;;;6277396;28;20474;-67
2023/05/23 04:02:47;;;;;;;11.27;9.70;;;16.40;99.90;;;;;;6277648;28;20941;-68
2023/05/23 04:05:50;;;;;;;10.40;9.27;;;16.40;99.90;;;;;;6277424;28;20789;-67
2023/05/23 04:08:53;;;;;;;10.53;9.40;;;16.40;99.90;;;;;;6276967;28;20485;-67
2023/05/23 04:12:00;;;;;;;10.17;9.27;;;16.40;99.90;;;;;;6277286;28;20470;-67
2023/05/23 04:15:04;;;;;;;9.40;8.70;;;16.50;99.90;;;;;;6277253;28;20474;-67
2023/05/23 04:18:09;;;;;;;11.33;9.63;;;16.60;99.90;;;;;;6277280;28;20489;-67
2023/05/23 04:21:12;;;;;;;11.10;10.10;;;16.60;99.90;;;;;;6277158;28;20485;-68
2023/05/23 04:24:15;;;;;;;10.00;9.00;;;16.70;99.90;;;;;;6277129;28;20489;-68
2023/05/23 04:27:19;;;;;;;9.50;8.57;;;16.80;99.90;;;;;;6277169;28;20508;-68
2023/05/23 04:30:22;;;;;;;10.33;9.43;;;16.90;99.90;;;;;;6272491;28;20470;-69
2023/05/23 04:33:27;;;;;;;10.60;9.60;;;16.90;99.90;;;;;;6277095;28;20484;-68
2023/05/23 04:36:30;;;;;;;9.43;8.60;;;17.00;99.90;;;;;;6276997;28;20506;-68
2023/05/23 04:39:33;;;;;;;11.40;9.43;;;17.20;99.90;;;;;;6279316;28;20473;-68
2023/05/23 04:42:36;;;;;;;11.00;9.87;;;17.30;99.90;;;;;;6281055;28;20972;-68
2023/05/23 04:45:40;;;;;;;10.43;9.53;;;17.50;99.90;;;;;;6277045;28;20485;-68
2023/05/23 04:48:47;;;;;;;11.77;9.80;;;17.60;99.90;;;;;;6276561;28;20493;-68
2023/05/23 04:51:50;;;;;;;12.97;10.77;;;17.80;99.90;;;;;;6276619;28;21021;-68
2023/05/23 04:54:54;;;;;;;11.90;10.70;;;17.90;99.90;;;;;;6275990;28;20245;-68
2023/05/23 04:57:58;;;;;;;12.57;11.30;;;18.10;99.90;;;;;;6276564;28;20481;-68
2023/05/23 05:01:01;;;;;;;15.50;10.90;;;18.20;99.90;;;;;;6275501;28;20662;-68
2023/05/23 05:04:06;;;;;;;10.80;9.80;;;18.40;99.90;;;;;;6276238;28;20719;-68
2023/05/23 05:07:09;;;;;;;10.07;9.07;;;18.50;99.90;;;;;;6275762;28;20676;-68
2023/05/23 05:10:15;;;;;;;12.17;10.10;;;18.70;99.90;;;;;;6275933;28;20232;-68
2023/05/23 05:13:19;;;;;;;11.80;10.60;;;18.80;99.90;;;;;;6275809;28;20232;-68
2023/05/23 05:16:22;;;;;;;11.77;10.30;;;19.00;99.90;;;;;;6275715;28;20219;-68
2023/05/23 05:19:26;;;;;;;12.27;11.00;;;19.10;99.90;;;;;;6275625;28;20231;-68
2023/05/23 05:22:30;;;;;;;14.90;11.00;;;19.20;99.90;;;;;;6275354;28;20357;-68
2023/05/23 05:25:37;;;;;;;11.73;10.43;;;19.30;99.90;;;;;;6275603;28;20229;-68
2023/05/23 05:28:40;;;;;;;12.50;10.53;;;19.40;99.90;;;;;;6275300;28;20223;-67
2023/05/23 05:31:44;;;;;;;16.13;9.60;;;19.60;99.90;;;;;;6271577;28;20209;-68
2023/05/23 05:34:51;;;;;;;13.37;10.27;;;19.80;99.90;;;;;;6275460;28;20214;-68
2023/05/23 05:37:54;;;;;;;11.07;9.97;;;20.00;99.90;;;;;;6275138;28;20207;-68
2023/05/23 05:40:58;;;;;;;11.53;10.40;;;20.20;99.90;;;;;;6275060;28;20236;-68
2023/05/23 05:44:01;;;;;;;10.80;9.80;;;20.30;99.70;;;;;;6274457;28;20249;-68
2023/05/23 05:47:04;;;;;;;10.10;9.20;;;20.50;99.70;;;;;;6274247;28;20255;-68
2023/05/23 05:50:10;;;;;;;10.50;9.50;;;20.70;98.80;;;;;;6274570;28;20231;-68
2023/05/23 05:53:14;;;;;;;12.70;10.60;;;21.00;98.40;;;;;;6274771;28;20307;-68
2023/05/23 05:56:17;;;;;;;10.50;9.40;;;21.30;98.00;;;;;;6275129;28;20239;-69
2023/05/23 05:59:20;;;;;;;11.20;10.10;;;21.60;97.00;;;;;;6274715;28;20345;-68
2023/05/23 06:02:23;;;;;;;10.83;9.67;;;22.10;96.20;;;;;;6275043;28;20310;-68
2023/05/23 06:05:28;;;;;;;13.70;11.27;;;22.60;95.80;;;;;;6275256;28;20239;-68
2023/05/23 06:08:31;;;;;;;11.27;10.07;;;23.20;95.00;;;;;;6274818;28;20357;-68
2023/05/23 06:11:38;;;;;;;11.33;10.13;;;23.90;94.00;;;;;;6274872;28;20231;-67
2023/05/23 06:14:41;;;;;;;12.97;11.17;;;24.40;92.40;;;;;;6274428;28;20313;-67
2023/05/23 06:17:45;;;;;;;13.33;10.20;;;25.10;90.50;;;;;;6274601;28;20235;-68
2023/05/23 06:20:50;;;;;;;12.67;10.43;;;25.40;88.70;;;;;;6274430;28;20227;-68
2023/05/23 06:23:53;;;;;;;9.80;8.90;;;25.80;87.30;;;;;;6274478;28;20235;-66
2023/05/23 06:26:56;;;;;;;10.17;8.97;;;26.10;85.00;;;;;;6275118;28;20242;-66
2023/05/23 06:29:59;;;;;;;11.60;10.00;;;26.70;84.20;;;;;;6272214;28;20235;-66
2023/05/23 06:33:03;;;;;;;12.10;11.03;;;27.50;81.40;;;;;;6273673;28;20262;-67
2023/05/23 06:36:08;;;;;;;10.80;9.83;;;28.30;77.00;;;;;;6273580;28;20226;-66
2023/05/23 06:39:11;;;;;;;12.33;9.70;;;28.90;74.00;;;;;;6273643;28;20242;-67
2023/05/23 06:42:15;;;;;;;10.00;9.03;;;29.60;70.60;;;;;;6274054;28;20545;-67
2023/05/23 06:45:18;;;;;;;12.00;9.47;;;30.30;64.10;;;;;;6274208;28;20307;-67
2023/05/23 06:48:21;;;;;;;12.07;10.03;;;30.60;61.90;;;;;;6274148;28;20571;-67
2023/05/23 06:51:26;;;;;;;10.48;9.57;;;30.70;59.00;;;;;;6274053;28;20237;-67
2023/05/23 06:54:29;;;;;;;9.93;8.38;;;31.40;57.20;;;;;;6274241;28;20222;-67
2023/05/23 06:57:32;;;;;;;9.57;8.77;;;32.20;55.10;;;;;;6273870;28;20238;-67
2023/05/23 07:00:35;;;;;;;9.68;8.80;;;32.80;54.70;;;;;;6273808;28;20249;-67
2023/05/23 07:03:40;;;;;;;9.52;8.73;;;33.60;53.20;;;;;;6274190;28;20250;-67
2023/05/23 07:06:45;;;;;;;9.80;8.80;;;34.40;50.80;;;;;;6278506;28;20574;-66
2023/05/23 07:09:48;;;;;;;10.00;8.77;;;34.80;49.40;;;;;;6277169;28;20337;-66
2023/05/23 07:12:51;;;;;;;10.07;8.60;;;35.30;45.50;;;;;;6276584;28;20288;-67
2023/05/23 07:15:55;;;;;;;13.38;8.60;;;35.20;43.30;;;;;;6277095;28;20211;-66
2023/05/23 07:18:58;;;;;;;9.50;8.70;;;35.20;45.00;;;;;;6272727;28;20238;-66
2023/05/23 07:22:03;;;;;;;8.80;8.10;;;35.70;41.50;;;;;;6277415;28;20272;-66
2023/05/23 07:25:08;;;;;;;10.18;9.18;;;36.30;41.70;;;;;;6277511;28;20268;-66
2023/05/23 07:28:11;;;;;;;8.88;8.07;;;36.90;39.60;;;;;;6277473;28;20302;-66
2023/05/23 07:31:14;;;;;;;10.13;9.13;;;36.60;38.10;;;;;;6277499;28;20226;-66
2023/05/23 07:34:17;;;;;;;9.43;8.60;;;36.70;38.10;;;;;;6274946;28;20669;-66
2023/05/23 07:37:22;;;;;;;13.25;11.25;;;37.70;38.00;;;;;;6277707;28;20226;-66
2023/05/23 07:40:25;;;;;;;10.30;9.30;;;38.90;36.10;;;;;;6277978;28;20309;-66
2023/05/23 07:43:28;;;;;;;12.90;11.60;;;39.40;34.40;;;;;;6277758;28;20235;-66
2023/05/23 07:46:31;;;;;;;14.98;10.88;;;38.90;34.10;;;;;;6277357;28;20223;-66
2023/05/23 07:49:35;;;;;;;13.20;11.02;;;38.50;35.20;;;;;;6277096;28;20676;-66
2023/05/23 07:52:40;;;;;;;12.10;11.05;;;39.40;34.60;;;;;;6276509;28;20951;-66
2023/05/23 07:55:43;;;;;;;11.90;10.80;;;40.20;33.20;;;;;;6276670;28;20198;-67
2023/05/23 07:58:46;;;;;;;12.15;10.75;;;40.80;32.20;;;;;;6276783;28;20218;-67
2023/05/23 08:01:50;;;;;;;12.00;10.68;;;40.90;31.60;;;;;;6277075;28;20199;-67
2023/05/23 08:04:53;;;;;;;13.27;10.50;;;40.30;32.00;;;;;;6277125;28;20196;-68
2023/05/23 08:07:58;;;;;;;12.73;9.85;;;39.60;32.60;;;;;;6277669;28;20249;-66
2023/05/23 08:11:01;;;;;;;14.68;10.10;;;38.60;32.90;;;;;;6280851;28;20227;-66
2023/05/23 08:14:04;;;;;;;18.55;10.32;;;37.10;34.80;;;;;;6275091;28;20218;-66
2023/05/23 08:17:07;;;;;;;10.73;9.70;;;36.20;36.20;;;;;;6276684;28;20503;-68
2023/05/23 08:20:12;;;;;;;10.63;9.65;;;35.40;37.00;;;;;;6276646;28;20588;-67
2023/05/23 08:23:17;;;;;;;11.80;10.20;;;35.00;38.20;;;;;;6277905;28;20237;-71
2023/05/23 08:26:21;;;;;;;12.95;10.32;;;34.40;39.80;;;;;;6278247;28;20246;-70
2023/05/23 08:29:24;;;;;;;11.77;10.13;;;33.70;41.40;;;;;;6277707;28;20254;-70
2023/05/23 08:32:28;;;;;;;11.75;10.68;;;33.30;42.40;;;;;;6277566;28;20262;-70
2023/05/23 08:35:34;;;;;;;12.70;10.00;;;32.90;42.50;;;;;;6278564;28;20233;-71
2023/05/23 08:38:38;;;;;;;10.95;10.00;;;32.40;43.10;;;;;;6278393;28;20245;-71
2023/05/23 08:41:41;;;;;;;11.90;10.43;;;32.10;43.70;;;;;;6308970;22;20236;-70
2023/05/23 08:44:45;;;;;;;14.82;10.32;;;31.70;45.20;;;;;;6293144;28;20238;-70
2023/05/23 08:47:48;;;;;;;11.15;9.77;;;31.40;46.70;;;;;;6302316;28;20308;-71
2023/05/23 08:50:53;;;;;;;11.90;10.30;;;31.30;46.50;;;;;;6301661;28;20253;-69
2023/05/23 08:53:58;;;;;;;12.38;10.82;;;31.20;46.40;;;;;;6301907;28;20225;-71
2023/05/23 08:57:02;;;;;;;10.18;9.23;;;31.00;47.20;;;;;;6301583;28;20238;-70
2023/05/23 09:00:13;;;;;;;10.73;9.73;;;30.90;48.10;;;;;;6301538;28;20244;-70
2023/05/23 09:03:17;;;;;;;12.30;10.93;;;30.60;47.90;;;;;;6301500;28;20226;-70
2023/05/23 09:06:22;;;;;;;10.57;9.77;;;30.30;48.50;;;;;;6301760;28;20230;-71
2023/05/23 09:09:26;;;;;;;10.90;9.90;;;29.90;49.90;;;;;;6302129;28;20230;-70
2023/05/23 09:12:29;;;;;;;10.90;9.85;;;29.90;49.00;;;;;;6302178;28;20313;-70
2023/05/23 09:15:33;;;;;;;10.02;9.23;;;29.70;50.20;;;;;;6300477;28;20222;-70
2023/05/23 09:18:38;;;;;;;10.65;9.57;;;29.50;50.50;;;;;;6300294;28;20596;-70
2023/05/23 09:21:44;;;;;;;10.52;9.63;;;29.70;51.00;;;;;;6307624;22;20226;-70
2023/05/23 09:24:50;;;;;;;10.95;9.85;;;30.10;50.20;;;;;;6300253;28;20246;-69
2023/05/23 09:27:55;;;;;;;13.05;10.20;;;30.10;50.10;;;;;;6299372;28;20218;-70
2023/05/23 09:30:59;;;;;;;11.13;10.13;;;29.90;50.30;;;;;;6280794;28;20227;-69
2023/05/23 09:34:02;;;;;;;12.88;11.25;;;30.00;49.90;;;;;;6274897;28;20235;-71
2023/05/23 09:37:06;;;;;;;10.57;9.82;;;30.00;49.90;;;;;;6275241;28;20236;-69
2023/05/23 09:40:13;;;;;;;11.60;10.60;;;30.10;49.70;;;;;;6275237;28;20231;-71
2023/05/23 09:43:17;;;;;;;10.45;9.65;;;30.30;49.10;;;;;;6274896;28;20264;-69
2023/05/23 09:46:22;;;;;;;11.38;10.20;;;30.40;48.90;;;;;;6274860;28;20284;-70
2023/05/23 09:49:27;;;;;;;10.25;9.43;;;30.60;48.30;;;;;;6270540;28;20235;-69
2023/05/23 09:52:36;;;;;;;11.68;10.68;;;30.60;48.20;;;;;;6280965;28;20681;-70
2023/05/23 09:55:41;;;;;;;12.27;11.07;;;30.70;48.20;;;;;;6279073;28;20459;-70
2023/05/23 09:58:47;;;;;;;10.60;9.68;;;30.80;47.50;;;;;;6276624;28;20445;-67
2023/05/23 10:01:52;;;;;;;10.38;9.40;;;30.60;47.50;;;;;;6273793;28;20207;-68
2023/05/23 10:04:56;;;;;;;11.38;10.30;;;30.90;47.80;;;;;;6274876;28;20214;-69
2023/05/23 10:08:01;;;;;;;10.63;9.75;;;30.90;47.00;;;;;;6273995;28;20227;-69
2023/05/23 10:11:57;;;;;;;11.25;10.20;;;31.00;46.90;;;;;;6274080;28;20570;-69
2023/05/23 10:15:04;;;;;;;11.48;10.38;;;31.00;46.90;;;;;;6259044;28;20226;-69
2023/05/23 10:18:16;;;;;;;10.50;9.48;;;31.00;46.20;;;;;;6274823;28;20555;-69
2023/05/23 10:21:24;;;;;;;12.77;10.60;;;31.10;46.00;;;;;;6274182;28;20246;-69
2023/05/23 10:24:28;;;;;;;12.68;10.27;;;31.30;45.80;;;;;;6274661;28;20312;-69
2023/05/23 10:27:33;;;;;;;11.40;10.27;;;31.50;46.00;;;;;;6273887;28;20626;-69
2023/05/23 10:30:37;;;;;;;10.75;9.85;;;31.50;44.90;;;;;;6274644;28;20234;-69
2023/05/23 10:33:46;;;;;;;10.15;9.35;;;31.10;44.20;;;;;;6274611;28;20230;-69
2023/05/23 10:36:57;;;;;;;12.05;10.93;;;31.00;45.30;;;;;;6274422;28;20223;-68
2023/05/23 10:40:05;;;;;;;11.75;10.57;;;30.80;46.80;;;;;;6276722;28;20364;-69
2023/05/23 10:43:18;;;;;;;10.73;9.73;;;30.50;50.20;;;;;;6279505;28;20360;-69
2023/05/23 10:46:22;;;;;;;11.35;10.25;;;30.50;51.40;;;;;;6279451;28;20237;-68
2023/05/23 10:49:38;;;;;;;12.02;10.85;;;30.60;49.50;;;;;;6279186;28;20658;-68
2023/05/23 10:52:43;;;;;;;10.93;9.90;;;30.90;47.00;;;;;;6279655;28;20225;-68
2023/05/23 10:55:49;;;;;;;12.73;10.32;;;30.90;46.80;;;;;;6278712;28;20207;-69
2023/05/23 10:58:55;;;;;;;10.65;9.65;;;31.20;45.00;;;;;;6279401;28;20264;-69
2023/05/23 11:02:01;;;;;;;10.75;9.82;;;31.00;44.50;;;;;;6279013;28;20239;-68
2023/05/23 11:05:21;;;;;;;9.57;8.73;;;31.10;45.10;;;;;;6278618;28;20724;-69
2023/05/23 11:08:25;;;;;;;10.23;9.35;;;31.40;44.70;;;;;;6278761;28;20273;-69
2023/05/23 11:12:03;;;;;;;11.38;10.07;;;31.60;43.00;;;;;;6278458;28;20235;-69
2023/05/23 11:15:21;;;;;;;10.45;9.43;;;31.30;43.70;;;;;;6278424;28;20235;-69
2023/05/23 11:18:26;;;;;;;12.07;10.75;;;31.10;44.10;;;;;;6278536;28;20302;-68
2023/05/23 11:21:30;;;;;;;9.70;8.80;;;30.40;44.30;;;;;;6277801;28;20254;-68
2023/05/23 11:24:51;;;;;;;10.77;9.77;;;29.70;45.50;;;;;;6278146;28;20223;-68
2023/05/23 11:27:54;;;;;;;10.43;9.63;;;29.40;45.70;;;;;;6278345;28;20656;-68
2023/05/23 11:30:59;;;;;;;10.27;9.17;;;29.00;46.40;;;;;;6277839;28;20239;-68
2023/05/23 11:34:02;;;;;;;10.50;9.50;;;28.70;46.80;;;;;;6277510;28;20785;-70
2023/05/23 11:37:05;;;;;;;9.93;9.13;;;28.50;47.60;;;;;;6278050;28;20237;-70
2023/05/23 11:40:31;;;;;;;9.10;8.30;;;28.50;48.20;;;;;;6290796;28;20230;-70
2023/05/23 11:43:34;;;;;;;8.80;8.07;;;28.50;48.80;;;;;;6278098;28;20725;-69
2023/05/23 11:46:40;;;;;;;9.57;8.63;;;28.30;50.20;;;;;;6274927;28;20223;-68
2023/05/23 11:49:45;;;;;;;8.80;8.00;;;27.40;56.90;;;;;;6276970;28;20231;-68
2023/05/23 11:52:51;;;;;;;9.10;7.13;;;25.40;64.00;;;;;;6272459;28;20199;-71
2023/05/23 11:55:57;;;;;;;8.40;6.83;;;22.90;70.60;;;;;;6254007;28;20196;-69
2023/05/23 11:59:00;;;;;;;7.20;6.50;;;20.60;78.90;;;;;;6252729;28;20539;-68
2023/05/23 12:02:06;;;;;;;6.13;5.53;;;19.10;89.40;;;;;;6252911;28;20238;-69
2023/05/23 12:05:12;;;;;;;11.10;5.40;;;18.20;94.50;;;;;;6253069;28;20238;-70
2023/05/23 12:08:15;;;;;;;7.83;6.33;;;18.00;97.40;;;;;;6252917;28;20247;-70
2023/05/23 12:11:18;;;;;;;6.90;6.20;;;18.30;99.60;;;;;;6252741;28;20319;-70
2023/05/23 12:14:22;;;;;;;5.70;5.10;;;18.50;99.90;;;;;;6252825;28;20227;-71
2023/05/23 12:17:27;;;;;;;5.53;5.03;;;18.40;99.90;;;;;;6252607;28;20225;-67
2023/05/23 12:20:33;;;;;;;5.80;5.20;;;18.50;97.60;;;;;;6261986;28;20580;-68
2023/05/23 12:23:37;;;;;;;5.90;5.33;;;18.80;98.70;;;;;;6276529;28;20224;-68
2023/05/23 12:26:47;;;;;;;6.23;5.63;;;18.90;99.90;;;;;;6276332;28;20223;-68
2023/05/23 12:29:51;;;;;;;6.60;6.00;;;19.10;99.90;;;;;;6273823;28;20227;-67
2023/05/23 12:32:56;;;;;;;9.50;7.73;;;19.20;99.90;;;;;;6276536;28;20234;-64
2023/05/23 12:35:59;;;;;;;9.57;7.37;;;19.40;99.90;;;;;;6276733;28;20334;-64
2023/05/23 12:39:03;;;;;;;8.83;7.80;;;19.60;99.90;;;;;;6276535;28;20238;-64
2023/05/23 12:42:10;;;;;;;19.17;8.27;;;19.70;99.90;;;;;;6276145;28;20238;-65
2023/05/23 12:45:14;;;;;;;9.07;8.07;;;19.60;99.90;;;;;;6251175;28;20686;-64
2023/05/23 12:48:19;;;;;;;11.33;8.20;;;19.60;99.90;;;;;;6250718;28;20270;-64
2023/05/23 12:51:22;;;;;;;9.20;7.03;;;19.70;99.90;;;;;;6251002;28;20232;-64
2023/05/23 12:54:25;;;;;;;10.43;6.90;;;19.80;99.90;;;;;;6273242;28;20234;-65
2023/05/23 12:57:28;;;;;;;8.43;6.97;;;19.80;99.90;;;;;;6275592;28;20219;-65
2023/05/23 13:00:32;;;;;;;6.97;6.23;;;19.90;99.90;;;;;;6275017;28;20223;-66
2023/05/23 13:03:36;;;;;;;9.80;7.77;;;20.00;99.90;;;;;;6265673;28;20227;-65
2023/05/23 13:06:39;;;;;;;9.43;8.30;;;19.90;99.90;;;;;;6275689;28;20235;-69
2023/05/23 13:09:43;;;;;;;11.40;7.70;;;19.90;99.90;;;;;;6275731;28;20232;-68
2023/05/23 13:12:46;;;;;;;8.70;7.83;;;19.80;99.90;;;;;;6275442;28;20223;-68
2023/05/23 13:15:49;;;;;;;11.13;7.70;;;19.80;99.90;;;;;;6275697;28;20673;-68
2023/05/23 13:18:55;;;;;;;9.20;8.30;;;19.90;99.90;;;;;;6275245;28;20683;-69
2023/05/23 13:21:59;;;;;;;10.50;8.47;;;20.00;99.90;;;;;;6275340;28;20469;-68
2023/05/23 13:25:02;;;;;;;8.67;7.77;;;20.10;99.90;;;;;;6278732;28;20675;-69
2023/05/23 13:28:05;;;;;;;9.40;7.20;;;20.00;99.90;;;;;;6278694;28;20289;-69
2023/05/23 13:31:09;;;;;;;10.47;8.70;;;20.10;99.90;;;;;;6277996;28;20235;-68
2023/05/23 13:34:13;;;;;;;9.37;8.30;;;20.10;99.90;;;;;;6277597;28;20241;-68
2023/05/23 13:37:17;;;;;;;9.90;8.87;;;20.10;99.90;;;;;;6274966;28;20238;-69
2023/05/23 13:40:21;;;;;;;9.57;8.67;;;20.10;99.90;;;;;;6274710;28;20251;-67
2023/05/23 13:43:24;;;;;;;10.73;9.63;;;20.10;99.90;;;;;;6273933;28;20238;-67
2023/05/23 13:46:27;;;;;;;11.80;9.80;;;20.20;99.90;;;;;;6275344;28;20226;-69
2023/05/23 13:49:32;;;;;;;10.67;9.57;;;20.20;99.90;;;;;;6273587;28;20219;-68
2023/05/23 13:52:35;;;;;;;10.60;9.50;;;20.20;99.90;;;;;;6273970;28;20219;-66
2023/05/23 13:55:38;;;;;;;11.23;9.90;;;20.20;99.90;;;;;;6274872;28;20330;-67
2023/05/23 13:58:45;;;;;;;11.47;10.23;;;20.30;99.90;;;;;;6273869;28;20233;-63
2023/05/23 14:01:48;;;;;;;12.20;10.07;;;20.30;99.90;;;;;;6274816;28;20314;-65
2023/05/23 14:04:53;;;;;;;12.17;11.07;;;20.40;99.90;;;;;;6270472;28;20207;-66
2023/05/23 14:07:56;;;;;;;12.30;11.00;;;20.40;99.90;;;;;;6275140;28;20742;-69
2023/05/23 14:10:59;;;;;;;11.00;9.93;;;20.50;99.90;;;;;;6276015;28;20262;-68
2023/05/23 14:14:02;;;;;;;11.03;9.90;;;20.70;99.90;;;;;;6277096;28;20235;-67
2023/05/23 14:17:06;;;;;;;11.33;9.90;;;20.80;99.90;;;;;;6274729;28;20245;-66
2023/05/23 14:20:11;;;;;;;11.30;10.23;;;20.80;99.90;;;;;;6274083;28;20235;-66
2023/05/23 14:23:14;;;;;;;12.30;10.30;;;20.90;99.90;;;;;;6274306;28;20250;-66
2023/05/23 14:26:18;;;;;;;14.40;12.30;;;21.00;99.90;;;;;;6274127;28;20246;-66
2023/05/23 14:29:21;;;;;;;10.90;9.77;;;21.20;99.90;;;;;;6274195;28;20239;-66
2023/05/23 14:32:24;;;;;;;12.50;11.27;;;21.40;99.90;;;;;;6274061;28;20235;-66
2023/05/23 14:35:29;;;;;;;11.87;10.77;;;21.60;99.90;;;;;;6273903;28;20250;-67
2023/05/23 14:38:32;;;;;;;12.60;9.87;;;21.80;99.90;;;;;;6274202;28;20306;-67
2023/05/23 14:41:35;;;;;;;11.37;10.27;;;22.00;99.90;;;;;;6273344;28;20233;-66
2023/05/23 14:44:39;;;;;;;10.47;9.37;;;22.20;99.90;;;;;;6272417;28;20682;-65
2023/05/23 14:47:42;;;;;;;12.20;10.80;;;22.20;99.90;;;;;;6272355;28;20237;-66
2023/05/23 14:50:46;;;;;;;10.83;9.93;;;22.30;99.90;;;;;;6272948;28;20235;-67
2023/05/23 14:53:50;;;;;;;12.30;11.20;;;22.40;99.90;;;;;;6266368;28;20650;-66
2023/05/23 14:56:53;;;;;;;12.57;10.43;;;22.40;99.90;;;;;;6248831;28;20248;-65
2023/05/23 14:59:56;;;;;;;11.57;10.57;;;22.50;99.90;;;;;;6248800;28;20371;-67
2023/05/23 15:02:59;;;;;;;11.50;10.40;;;22.70;99.90;;;;;;6260736;28;20216;-67
2023/05/23 15:06:05;;;;;;;12.07;10.80;;;22.80;99.90;;;;;;6273849;28;20301;-66
2023/05/23 15:09:09;;;;;;;12.97;11.50;;;22.80;99.90;;;;;;6271624;28;20223;-66
2023/05/23 15:12:14;;;;;;;11.77;10.70;;;22.90;99.90;;;;;;6264499;28;20235;-67
2023/05/23 15:15:21;;;;;;;11.93;9.73;;;22.80;99.90;;;;;;6273421;28;20281;-66
2023/05/23 15:18:24;;;;;;;12.80;9.70;;;22.90;99.90;;;;;;6272713;28;20679;-67
2023/05/23 15:21:44;;;;;;;11.57;10.47;;;23.00;99.90;;;;;;6271818;28;20238;-66
2023/05/23 15:24:53;;;;;;;11.80;10.80;;;23.00;99.90;;;;;;6274202;28;20309;-66
2023/05/23 15:27:56;;;;;;;12.40;11.30;;;23.00;99.90;;;;;;6277864;28;20551;-66
2023/05/23 15:30:59;;;;;;;10.87;9.73;;;23.00;99.90;;;;;;6277009;28;20243;-67
2023/05/23 15:34:03;;;;;;;10.97;9.93;;;23.00;99.90;;;;;;6277914;28;20219;-67
2023/05/23 15:37:11;;;;;;;12.43;11.23;;;23.00;99.90;;;;;;6278586;28;20663;-65
2023/05/23 15:40:14;;;;;;;11.00;9.97;;;22.90;99.90;;;;;;6278092;28;20687;-64
2023/05/23 15:43:17;;;;;;;10.47;9.37;;;22.80;99.90;;;;;;6277716;28;20361;-63
2023/05/23 15:46:20;;;;;;;9.73;8.93;;;22.70;99.90;;;;;;6277298;28;20234;-65
2023/05/23 15:49:24;;;;;;;10.37;9.37;;;22.70;99.90;;;;;;6276822;28;20231;-66
2023/05/23 15:52:30;;;;;;;10.10;9.30;;;22.70;99.90;;;;;;6277423;28;20289;-68